Tuesday, April 24, 2018, 4:34 AM EDT
Back to Local

K1V4, St Johnsbury Fairbanks

Location: Saint Johnsbury, VT, United States Lat: 44.417
Local Time: 4:34 AM EDT ( 8:34 GMT) Lon: -72.017
Time Zone: US/Eastern Elev: 695 ft

Show me the last for .
Show Coded

Time T Td Feel RH Dir Speed Gust Alt SLP Vis Weather Sky Remarks
2018-04-24 03:54 30 25 - 81 - - - 30.32 30.33 0 None
2018-04-24 02:54 31 26 - 81 - - - 30.32 30.33 0 None
2018-04-24 01:54 32 27 - 81 - - - 30.32 30.33 0 6-hr Min Temp (2am): 32.0°F
6-hr Max Temp (2am): 57.0°F
2018-04-24 00:54 34 26 - 72 - - - 30.32 30.33 0 24-hr Min Temp (1am): 25.0°F
24-hr Max Temp (1am): 66.0°F
2018-04-23 23:54 36 25 - 63 - - - 30.32 30.33 0 None
2018-04-23 22:54 39 26 - 59 - - - 30.32 30.33 0 None
2018-04-23 21:54 42 26 - 52 - - - 30.33 30.34 0 None
2018-04-23 20:54 49 25 - 38 - - - 30.31 30.33 0 None
2018-04-23 19:54 58 15 - 18 - - - 30.31 30.32 0 6-hr Min Temp (8pm): 57.9°F
6-hr Max Temp (8pm): 66.0°F
2018-04-23 18:54 62 14 - 15 - - - 30.30 30.31 0 None
2018-04-23 17:54 63 12 - 13 - - - 30.31 30.32 0 None
2018-04-23 16:54 65 8 - 10 - - - 30.32 30.33 0 None
2018-04-23 15:54 64 12 - 12 - - - 30.34 30.35 0 None
2018-04-23 14:54 63 11 - 12 - - - 30.37 30.37 0 None
2018-04-23 13:54 59 10 - 14 - - - 30.40 30.41 0 6-hr Min Temp (2pm): 30.0°F
6-hr Max Temp (2pm): 60.1°F
2018-04-23 12:54 58 11 - 15 - - - 30.42 30.43 0 None
2018-04-23 11:54 57 9 - 14 - - - 30.44 30.45 0 None
2018-04-23 10:54 53 19 - 25 - - - 30.47 30.48 0 None
2018-04-23 09:54 45 25 - 45 - - - 30.48 30.50 0 None
2018-04-23 08:54 37 25 - 61 - - - 30.50 30.52 0 None
2018-04-23 07:54 30 25 - 81 - - - 30.50 30.52 0 6-hr Min Temp (8am): 25.0°F
6-hr Max Temp (8am): 30.0°F
2018-04-23 06:54 26 23 - 87 - - - 30.47 30.49 0 None
2018-04-23 05:54 25 23 - 92 - - - 30.45 30.47 0 None
2018-04-23 04:54 26 22 - 84 - - - 30.44 30.45 0 None

Support USWX by starting your Amazon purchase here.